Time;durP1;ratioP1;P1;durP2;ratioP2;P2;SDS_P1;SDS_P2;PMS_P1;PMS_P2;Temp;Humidity;BMP_temperature;BMP_pressure;BME280_temperature;BME280_humidity;BME280_pressure;Samples;Min_cycle;Max_cycle;Signal;HPM_P1;HPM_P2
2023/05/31 00:02:13;;;;;;;;;;;11.80;99.90;;;;;;5036447;28;20378;-85
2023/05/31 00:04:38;;;;;;;;;;;10.00;99.90;;;;;;5035812;28;20008;-86
2023/05/31 00:07:07;;;;;;;;;;;10.00;99.90;;;;;;5035903;28;20019;-85
2023/05/31 00:09:32;;;;;;;;;;;10.00;99.90;;;;;;5016733;28;20020;-86
2023/05/31 00:11:58;;;;;;;;;;;10.00;99.90;;;;;;5030508;28;19964;-86
2023/05/31 00:14:24;;;;;;;;;;;10.00;99.90;;;;;;5011348;28;20031;-86
2023/05/31 00:16:50;;;;;;;;;;;10.00;99.90;;;;;;5035112;28;19924;-86
2023/05/31 00:19:15;;;;;;;;;;;10.00;99.90;;;;;;5035653;28;19925;-86
2023/05/31 00:21:45;;;;;;;;;;;10.00;99.90;;;;;;5010033;28;19932;-86
2023/05/31 00:24:15;;;;;;;;;;;10.00;99.90;;;;;;5017189;28;19932;-86
2023/05/31 00:26:41;;;;;;;;;;;10.00;99.90;;;;;;5017011;28;20015;-85
2023/05/31 00:29:06;;;;;;;;;;;10.00;99.90;;;;;;5019260;28;19983;-86
2023/05/31 00:31:32;;;;;;;;;;;10.00;99.90;;;;;;5035415;28;19932;-86
2023/05/31 00:33:57;;;;;;;;;;;9.90;99.90;;;;;;5034901;28;19924;-86
2023/05/31 00:36:23;;;;;;;;;;;9.90;99.90;;;;;;5035856;28;20282;-86
2023/05/31 00:38:49;;;;;;;;;;;9.90;99.90;;;;;;5035782;28;19944;-86
2023/05/31 00:41:15;;;;;;;;;;;9.90;99.90;;;;;;5019425;28;19951;-86
2023/05/31 00:43:40;;;;;;;;;;;9.90;99.90;;;;;;5035177;28;19936;-86
2023/05/31 00:46:09;;;;;;;;;;;9.80;99.90;;;;;;5019214;28;20019;-86
2023/05/31 00:48:37;;;;;;;;;;;9.70;99.90;;;;;;5017852;28;19924;-86
2023/05/31 00:51:03;;;;;;;;;;;9.70;99.90;;;;;;5035322;28;19964;-86
2023/05/31 00:53:29;;;;;;;;;;;9.70;99.90;;;;;;5047555;28;19977;-86
2023/05/31 00:55:55;;;;;;;;;;;9.60;99.90;;;;;;5019389;28;19929;-86
2023/05/31 00:58:22;;;;;;;;;;;9.60;99.90;;;;;;5034785;28;19998;-85
2023/05/31 01:00:48;;;;;;;;;;;9.50;99.90;;;;;;5035153;28;19931;-87
2023/05/31 01:03:14;;;;;;;;;;;9.80;99.90;;;;;;5035571;28;19932;-85
2023/05/31 01:05:40;;;;;;;;;;;9.40;99.90;;;;;;5035059;28;19932;-86
2023/05/31 01:08:06;;;;;;;;;;;9.30;99.90;;;;;;5033020;28;19929;-86
2023/05/31 01:10:31;;;;;;;;;;;9.30;99.90;;;;;;5013903;28;20042;-86
2023/05/31 01:13:12;;;;;;;;;;;9.30;99.90;;;;;;5034995;28;19924;-86
2023/05/31 01:15:54;;;;;;;;;;;9.30;99.90;;;;;;5035179;28;19932;-86
2023/05/31 01:18:25;;;;;;;;;;;9.30;99.90;;;;;;5029218;28;19968;-87
2023/05/31 01:20:51;;;;;;;;;;;9.30;99.90;;;;;;5034598;28;19967;-86
2023/05/31 01:23:19;;;;;;;;;;;9.20;99.90;;;;;;5031262;28;19979;-89
2023/05/31 01:26:02;;;;;;;;;;;9.20;99.90;;;;;;5035079;28;20367;-86
2023/05/31 01:28:30;;;;;;;;;;;9.20;99.90;;;;;;5020923;28;19968;-85
2023/05/31 01:30:58;;;;;;;;;;;9.20;99.90;;;;;;5018645;28;20251;-86
2023/05/31 01:33:23;;;;;;;;;;;9.10;99.90;;;;;;5017637;28;19932;-86
2023/05/31 01:35:49;;;;;;;;;;;9.00;99.90;;;;;;5035161;28;19924;-86
2023/05/31 01:38:15;;;;;;;;;;;8.90;99.90;;;;;;5027778;28;19925;-86
2023/05/31 01:40:40;;;;;;;;;;;8.80;99.90;;;;;;5029052;28;19925;-86
2023/05/31 01:43:06;;;;;;;;;;;8.80;99.90;;;;;;5037207;28;19929;-86
2023/05/31 01:45:33;;;;;;;;;;;8.70;99.90;;;;;;5038697;28;20278;-86
2023/05/31 01:48:03;;;;;;;;;;;8.60;99.90;;;;;;5028058;28;19975;-87
2023/05/31 01:50:28;;;;;;;;;;;8.60;99.90;;;;;;5021679;28;19929;-86
2023/05/31 01:52:54;;;;;;;;;;;8.60;99.90;;;;;;5021924;28;20275;-87
2023/05/31 01:55:20;;;;;;;;;;;8.60;99.90;;;;;;5033276;28;19931;-86
2023/05/31 01:57:46;;;;;;;;;;;8.60;99.90;;;;;;5029739;28;20422;-86
2023/05/31 02:00:12;;;;;;;;;;;8.60;99.90;;;;;;5037654;28;19925;-86
2023/05/31 02:02:41;;;;;;;;;;;8.60;99.90;;;;;;5020359;28;20004;-86
2023/05/31 02:05:13;;;;;;;;;;;8.50;99.90;;;;;;5030403;28;20349;-86
2023/05/31 02:07:42;;;;;;;;;;;8.50;99.90;;;;;;5037481;28;20413;-86
2023/05/31 02:10:08;;;;;;;;;;;8.60;99.90;;;;;;5033823;28;19929;-86
2023/05/31 02:12:34;;;;;;;;;;;8.60;99.90;;;;;;5037641;28;19924;-86
2023/05/31 02:15:00;;;;;;;;;;;8.60;99.90;;;;;;5038450;28;19924;-86
2023/05/31 02:17:26;;;;;;;;;;;8.60;99.90;;;;;;5021455;28;19929;-86
2023/05/31 02:19:52;;;;;;;;;;;8.50;99.90;;;;;;5037534;28;19925;-86
2023/05/31 02:22:18;;;;;;;;;;;8.50;99.90;;;;;;5037667;28;19928;-86
2023/05/31 02:24:45;;;;;;;;;;;8.50;99.90;;;;;;5026978;28;19975;-86
2023/05/31 02:27:11;;;;;;;;;;;8.60;99.90;;;;;;5037811;28;20370;-85
2023/05/31 02:29:37;;;;;;;;;;;8.60;99.90;;;;;;5037591;28;19928;-86
2023/05/31 02:32:03;;;;;;;;;;;8.70;99.90;;;;;;5021212;28;19932;-85
2023/05/31 02:34:28;;;;;;;;;;;8.80;99.90;;;;;;5019851;28;19924;-85
2023/05/31 02:36:54;;;;;;;;;;;8.80;99.90;;;;;;5031638;28;20055;-86
2023/05/31 02:39:19;;;;;;;;;;;8.80;99.90;;;;;;5033451;28;20359;-86
2023/05/31 02:41:45;;;;;;;;;;;8.90;99.90;;;;;;5001809;28;19932;-86
2023/05/31 02:44:11;;;;;;;;;;;8.80;99.90;;;;;;5022647;28;19925;-86
2023/05/31 02:46:36;;;;;;;;;;;8.90;99.90;;;;;;5018276;28;19937;-86
2023/05/31 02:49:02;;;;;;;;;;;8.90;99.90;;;;;;5033377;28;19925;-86
2023/05/31 02:51:28;;;;;;;;;;;8.90;99.90;;;;;;5037973;28;19975;-86
2023/05/31 02:53:53;;;;;;;;;;;8.90;99.90;;;;;;5036921;28;19986;-86
2023/05/31 02:56:20;;;;;;;;;;;8.90;99.90;;;;;;5020927;28;19948;-86
2023/05/31 02:58:46;;;;;;;;;;;8.80;99.90;;;;;;5016382;28;20286;-86
2023/05/31 03:01:11;;;;;;;;;;;8.80;99.90;;;;;;5015200;28;20016;-86
2023/05/31 03:03:37;;;;;;;;;;;8.70;99.90;;;;;;5030035;28;19935;-86
2023/05/31 03:06:04;;;;;;;;;;;8.50;99.90;;;;;;5004459;28;19936;-86
2023/05/31 03:08:30;;;;;;;;;;;8.30;99.90;;;;;;5037174;28;19925;-86
2023/05/31 03:10:56;;;;;;;;;;;8.20;99.90;;;;;;5037068;28;19979;-86
2023/05/31 03:13:22;;;;;;;;;;;8.10;99.90;;;;;;5033006;28;19965;-87
2023/05/31 03:15:47;;;;;;;;;;;8.00;99.90;;;;;;5036729;28;19925;-86
2023/05/31 03:18:13;;;;;;;;;;;7.90;99.90;;;;;;5036771;28;19928;-86
2023/05/31 03:20:38;;;;;;;;;;;7.80;99.90;;;;;;5018517;28;20290;-86
2023/05/31 03:23:05;;;;;;;;;;;7.70;99.90;;;;;;5023335;28;19925;-86
2023/05/31 03:25:30;;;;;;;;;;;7.60;99.90;;;;;;5036735;28;19925;-85
2023/05/31 03:27:57;;;;;;;;;;;7.50;99.90;;;;;;5033164;28;19935;-86
2023/05/31 03:30:22;;;;;;;;;;;7.40;99.90;;;;;;5033496;28;19936;-87
2023/05/31 03:32:48;;;;;;;;;;;7.30;99.90;;;;;;5034468;28;19925;-85
2023/05/31 03:35:14;;;;;;;;;;;7.30;99.90;;;;;;5019053;28;19932;-86
2023/05/31 03:37:39;;;;;;;;;;;7.20;99.90;;;;;;5032962;28;20004;-85
2023/05/31 03:40:05;;;;;;;;;;;7.10;99.90;;;;;;5052946;28;20302;-86
2023/05/31 03:42:31;;;;;;;;;;;7.00;99.90;;;;;;5036215;28;19929;-86
2023/05/31 03:44:57;;;;;;;;;;;6.90;99.90;;;;;;5035772;28;19925;-86
2023/05/31 03:47:23;;;;;;;;;;;6.80;99.90;;;;;;5034944;28;19932;-86
2023/05/31 03:49:48;;;;;;;;;;;6.80;99.90;;;;;;5028518;28;20020;-86
2023/05/31 03:52:14;;;;;;;;;;;6.80;99.90;;;;;;5032990;28;19925;-86
2023/05/31 03:54:40;;;;;;;;;;;6.80;99.90;;;;;;5035798;28;20000;-85
2023/05/31 03:57:06;;;;;;;;;;;6.90;99.90;;;;;;5029387;28;20368;-85
2023/05/31 03:59:33;;;;;;;;;;;6.90;99.90;;;;;;5003086;28;19924;-86
2023/05/31 04:01:59;;;;;;;;;;;9.50;99.90;;;;;;5035803;28;19967;-87
2023/05/31 04:04:25;;;;;;;;;;;6.90;99.90;;;;;;5018093;28;19972;-86
2023/05/31 04:06:50;;;;;;;;;;;6.90;99.90;;;;;;5019785;28;20324;-86
2023/05/31 04:09:17;;;;;;;;;;;6.90;99.90;;;;;;5022890;28;19929;-86
2023/05/31 04:11:43;;;;;;;;;;;7.00;99.90;;;;;;5015274;28;20290;-86
2023/05/31 04:14:09;;;;;;;;;;;7.30;99.90;;;;;;5015562;28;19924;-87
2023/05/31 04:16:34;;;;;;;;;;;7.20;99.90;;;;;;4992681;28;19932;-86
2023/05/31 04:19:00;;;;;;;;;;;7.10;99.90;;;;;;5018140;28;19976;-86
2023/05/31 04:21:26;;;;;;;;;;;7.20;99.90;;;;;;5031362;28;20321;-85
2023/05/31 04:23:52;;;;;;;;;;;7.30;99.90;;;;;;5035464;28;19932;-86
2023/05/31 04:26:17;;;;;;;;;;;7.30;99.90;;;;;;5035834;28;19925;-86
2023/05/31 04:28:44;;;;;;;;;;;7.40;99.90;;;;;;5017571;28;19975;-86
2023/05/31 04:31:10;;;;;;;;;;;7.50;99.90;;;;;;5019689;28;20119;-86
2023/05/31 04:33:36;;;;;;;;;;;7.50;99.90;;;;;;5034544;28;20039;-86
2023/05/31 04:36:03;;;;;;;;;;;7.60;99.90;;;;;;5019047;28;19979;-86
2023/05/31 04:38:30;;;;;;;;;;;7.70;99.90;;;;;;5035536;28;19932;-85
2023/05/31 04:40:59;;;;;;;;;;;7.70;99.90;;;;;;5015780;28;19931;-86
2023/05/31 04:43:25;;;;;;;;;;;7.70;99.90;;;;;;5034936;28;19931;-86
2023/05/31 04:45:51;;;;;;;;;;;7.80;99.90;;;;;;5020636;28;20416;-86
2023/05/31 04:48:17;;;;;;;;;;;7.80;99.90;;;;;;5018481;28;19953;-88
2023/05/31 04:50:43;;;;;;;;;;;7.90;99.90;;;;;;5035150;28;20374;-86
2023/05/31 04:53:10;;;;;;;;;;;8.00;99.90;;;;;;5034323;28;19932;-86
2023/05/31 04:55:35;;;;;;;;;;;8.10;99.90;;;;;;5036249;28;20294;-86
2023/05/31 04:58:01;;;;;;;;;;;8.20;99.90;;;;;;5029873;28;19925;-86
2023/05/31 05:00:27;;;;;;;;;;;8.30;99.90;;;;;;5018085;28;20332;-85
2023/05/31 05:02:52;;;;;;;;;;;8.60;99.90;;;;;;5035985;28;19924;-85
2023/05/31 05:05:18;;;;;;;;;;;8.70;99.90;;;;;;5014515;28;19964;-86
2023/05/31 05:07:44;;;;;;;;;;;8.90;99.90;;;;;;5047598;28;19925;-85
2023/05/31 05:10:09;;;;;;;;;;;9.20;99.90;;;;;;5018359;28;19975;-85
2023/05/31 05:12:35;;;;;;;;;;;9.50;99.90;;;;;;5034807;28;20461;-86
2023/05/31 05:15:02;;;;;;;;;;;9.90;99.90;;;;;;5018233;28;19998;-85
2023/05/31 05:17:27;;;;;;;;;;;10.10;99.90;;;;;;5022007;28;20020;-85
2023/05/31 05:19:53;;;;;;;;;;;10.30;99.90;;;;;;5033105;28;20015;-86
2023/05/31 05:22:19;;;;;;;;;;;10.50;99.90;;;;;;5015184;28;20362;-85
2023/05/31 05:24:44;;;;;;;;;;;8.50;99.90;;;;;;5019006;28;20008;-85
2023/05/31 05:27:10;;;;;;;;;;;10.80;99.90;;;;;;5017681;28;19924;-86
2023/05/31 05:29:36;;;;;;;;;;;10.90;99.90;;;;;;5016907;28;20023;-85
2023/05/31 05:32:01;;;;;;;;;;;11.10;99.90;;;;;;5015551;28;19925;-84
2023/05/31 05:34:27;;;;;;;;;;;11.20;99.90;;;;;;5020534;28;19928;-86
2023/05/31 05:36:52;;;;;;;;;;;11.30;99.90;;;;;;5037506;28;19971;-85
2023/05/31 05:39:18;;;;;;;;;;;11.40;99.90;;;;;;5035016;28;19925;-85
2023/05/31 05:41:44;;;;;;;;;;;11.50;99.90;;;;;;5031984;28;20269;-86
2023/05/31 05:44:09;;;;;;;;;;;11.50;99.90;;;;;;5038095;28;20012;-85
2023/05/31 05:46:35;;;;;;;;;;;11.50;99.90;;;;;;5025750;28;19925;-87
2023/05/31 05:49:01;;;;;;;;;;;11.60;99.90;;;;;;5021650;28;19997;-86
2023/05/31 05:51:26;;;;;;;;;;;11.60;99.90;;;;;;5042147;28;19929;-86
2023/05/31 05:53:52;;;;;;;;;;;11.70;99.90;;;;;;5049359;28;20038;-86
2023/05/31 05:56:18;;;;;;;;;;;11.70;99.90;;;;;;5022385;28;19925;-87
2023/05/31 05:58:47;;;;;;;;;;;11.80;99.90;;;;;;5029438;28;19951;-86
2023/05/31 06:01:18;;;;;;;;;;;11.90;99.90;;;;;;5035314;28;19924;-86
2023/05/31 06:03:45;;;;;;;;;;;14.30;99.90;;;;;;5027754;28;20449;-86
2023/05/31 06:06:11;;;;;;;;;;;12.00;99.90;;;;;;5028394;28;20303;-87
2023/05/31 06:08:36;;;;;;;;;;;12.10;99.90;;;;;;5016648;28;19925;-86
2023/05/31 06:11:03;;;;;;;;;;;12.20;99.90;;;;;;4996226;28;20024;-86
2023/05/31 06:13:28;;;;;;;;;;;12.30;99.90;;;;;;5036381;28;20011;-87
2023/05/31 06:15:54;;;;;;;;;;;12.30;99.90;;;;;;5021103;28;20012;-85
2023/05/31 06:18:20;;;;;;;;;;;12.40;99.90;;;;;;5036162;28;19974;-86
2023/05/31 06:20:45;;;;;;;;;;;12.40;99.90;;;;;;5034034;28;20497;-86
2023/05/31 06:23:11;;;;;;;;;;;12.50;99.90;;;;;;5019120;28;20039;-87
2023/05/31 06:25:36;;;;;;;;;;;12.50;99.90;;;;;;5036904;28;20022;-87
2023/05/31 06:28:03;;;;;;;;;;;12.60;99.90;;;;;;5019491;28;20020;-86
2023/05/31 06:30:29;;;;;;;;;;;12.60;99.90;;;;;;5036217;28;19925;-88
2023/05/31 06:32:56;;;;;;;;;;;12.70;99.90;;;;;;5032189;28;19940;-89
2023/05/31 06:35:22;;;;;;;;;;;12.80;99.90;;;;;;5033827;28;19925;-85
2023/05/31 06:37:48;;;;;;;;;;;12.90;99.90;;;;;;5036486;28;19925;-87
2023/05/31 06:40:14;;;;;;;;;;;12.90;99.90;;;;;;5034159;28;19925;-88
2023/05/31 06:42:40;;;;;;;;;;;13.00;99.90;;;;;;5036991;28;19932;-86
2023/05/31 06:45:06;;;;;;;;;;;13.00;99.90;;;;;;5017543;28;20430;-86
2023/05/31 06:47:32;;;;;;;;;;;13.10;99.90;;;;;;5036663;28;19924;-85
2023/05/31 06:49:58;;;;;;;;;;;13.10;99.90;;;;;;5030670;28;19931;-86
2023/05/31 06:52:23;;;;;;;;;;;13.20;99.90;;;;;;5012666;28;20333;-88
2023/05/31 06:54:49;;;;;;;;;;;13.20;99.90;;;;;;5032577;28;19925;-88
2023/05/31 06:57:15;;;;;;;;;;;13.30;99.90;;;;;;5020458;28;19970;-88
2023/05/31 06:59:40;;;;;;;;;;;11.90;99.90;;;;;;5034493;28;19975;-87
2023/05/31 07:02:06;;;;;;;;;;;13.40;99.90;;;;;;5052606;28;20019;-87
2023/05/31 07:04:32;;;;;;;;;;;13.40;99.90;;;;;;5036962;28;20330;-88
2023/05/31 07:06:57;;;;;;;;;;;13.20;99.90;;;;;;5033472;28;19926;-87
2023/05/31 07:09:23;;;;;;;;;;;13.40;99.90;;;;;;5023290;28;20067;-85
2023/05/31 07:11:49;;;;;;;;;;;13.50;99.90;;;;;;5019810;28;20385;-89
2023/05/31 07:14:15;;;;;;;;;;;13.60;99.90;;;;;;5034211;28;19929;-86
2023/05/31 07:16:40;;;;;;;;;;;13.60;99.90;;;;;;5031233;28;19933;-86
2023/05/31 07:19:06;;;;;;;;;;;16.20;99.90;;;;;;5027242;28;19928;-86
2023/05/31 07:21:32;;;;;;;;;;;13.80;99.90;;;;;;5029840;28;19924;-85
2023/05/31 07:23:58;;;;;;;;;;;13.80;99.90;;;;;;5030741;28;19928;-87
2023/05/31 07:26:23;;;;;;;;;;;13.90;99.90;;;;;;5036362;28;19971;-86
2023/05/31 07:28:52;;;;;;;;;;;13.90;99.90;;;;;;5040242;28;20064;-86
2023/05/31 07:31:18;;;;;;;;;;;14.00;99.90;;;;;;5033257;28;20267;-86
2023/05/31 07:33:44;;;;;;;;;;;14.10;99.90;;;;;;5024397;28;19935;-86
2023/05/31 07:36:10;;;;;;;;;;;14.10;99.90;;;;;;5034487;28;20392;-86
2023/05/31 07:38:35;;;;;;;;;;;14.10;99.90;;;;;;5027973;28;19935;-86
2023/05/31 07:41:01;;;;;;;;;;;14.20;99.90;;;;;;5018556;28;20414;-86
2023/05/31 07:43:29;;;;;;;;;;;14.30;99.90;;;;;;5021485;28;20386;-87
2023/05/31 07:45:56;;;;;;;;;;;14.30;99.90;;;;;;5016171;28;19972;-84
2023/05/31 07:48:21;;;;;;;;;;;14.30;99.90;;;;;;5050621;28;19924;-93
2023/05/31 07:50:47;;;;;;;;;;;14.50;99.90;;;;;;5022631;28;19978;-86
2023/05/31 07:53:13;;;;;;;;;;;14.50;99.90;;;;;;5016971;28;20016;-87
2023/05/31 07:55:39;;;;;;;;;;;14.50;99.90;;;;;;5052771;28;19932;-86
2023/05/31 07:58:05;;;;;;;;;;;14.60;99.90;;;;;;5003254;28;19929;-85
2023/05/31 08:00:31;;;;;;;;;;;14.60;99.90;;;;;;5035045;28;19925;-85
2023/05/31 08:02:56;;;;;;;;;;;14.70;99.90;;;;;;5029592;28;19951;-88
2023/05/31 08:05:22;;;;;;;;;;;14.80;99.90;;;;;;5031718;28;19932;-87
2023/05/31 08:07:48;;;;;;;;;;;14.90;99.90;;;;;;5015353;28;19925;-87
2023/05/31 08:10:14;;;;;;;;;;;14.70;99.90;;;;;;5018556;28;19929;-86
2023/05/31 08:12:40;;;;;;;;;;;15.00;99.90;;;;;;5015644;28;19924;-86
2023/05/31 08:15:06;;;;;;;;;;;15.10;99.90;;;;;;5031792;28;19929;-87
2023/05/31 08:17:32;;;;;;;;;;;15.10;99.90;;;;;;5039865;28;19931;-87
2023/05/31 08:19:57;;;;;;;;;;;15.20;99.90;;;;;;5027629;28;19960;-88
2023/05/31 08:22:23;;;;;;;;;;;15.30;99.90;;;;;;5035486;28;19925;-87
2023/05/31 08:24:49;;;;;;;;;;;15.40;99.90;;;;;;5015551;28;19932;-86
2023/05/31 08:27:16;;;;;;;;;;;15.40;99.90;;;;;;5031318;28;19929;-87
2023/05/31 08:29:42;;;;;;;;;;;15.40;99.90;;;;;;5030885;28;20302;-87
2023/05/31 08:32:07;;;;;;;;;;;15.50;99.90;;;;;;5045194;28;19931;-86
2023/05/31 08:34:33;;;;;;;;;;;15.60;99.90;;;;;;5027126;28;19928;-88
2023/05/31 08:36:59;;;;;;;;;;;15.70;99.90;;;;;;5034817;28;20321;-85
2023/05/31 08:39:25;;;;;;;;;;;15.80;99.90;;;;;;5000397;28;19971;-85
2023/05/31 08:42:14;;;;;;;;;;;15.90;99.90;;;;;;5027431;28;19925;-85
2023/05/31 08:44:40;;;;;;;;;;;16.00;99.90;;;;;;5026727;28;19968;-86
2023/05/31 08:47:14;;;;;;;;;;;16.00;99.90;;;;;;5034825;28;19925;-87
2023/05/31 08:49:41;;;;;;;;;;;16.00;99.90;;;;;;5034676;28;19925;-87
2023/05/31 08:52:07;;;;;;;;;;;16.10;99.90;;;;;;5034608;28;20263;-86
2023/05/31 08:54:34;;;;;;;;;;;16.20;99.90;;;;;;5017462;28;19925;-84
2023/05/31 08:57:01;;;;;;;;;;;16.30;99.90;;;;;;5014440;28;19929;-87
2023/05/31 08:59:27;;;;;;;;;;;16.40;99.90;;;;;;5014595;28;19925;-86
2023/05/31 09:01:53;;;;;;;;;;;16.60;99.90;;;;;;5035460;28;19971;-88
2023/05/31 09:04:18;;;;;;;;;;;16.70;99.90;;;;;;5005000;28;20578;-86
2023/05/31 09:06:44;;;;;;;;;;;16.90;99.90;;;;;;5024451;28;20382;-87
2023/05/31 09:09:10;;;;;;;;;;;16.90;99.90;;;;;;5013761;28;19925;-88
2023/05/31 09:11:40;;;;;;;;;;;17.00;99.90;;;;;;5044634;28;19926;-87
2023/05/31 09:14:08;;;;;;;;;;;17.00;99.90;;;;;;5029654;28;19933;-87
2023/05/31 09:16:34;;;;;;;;;;;16.90;99.90;;;;;;5026484;28;19925;-84
2023/05/31 09:19:01;;;;;;;;;;;17.00;99.90;;;;;;5022604;28;19948;-82
2023/05/31 09:21:26;;;;;;;;;;;17.20;99.90;;;;;;5033246;28;19933;-83
2023/05/31 09:23:59;;;;;;;;;;;17.30;99.90;;;;;;5010535;28;19933;-86
2023/05/31 09:26:25;;;;;;;;;;;17.50;99.90;;;;;;5028571;28;20003;-84
2023/05/31 09:28:51;;;;;;;;;;;17.60;99.90;;;;;;5028127;28;20404;-85
2023/05/31 09:31:17;;;;;;;;;;;17.70;99.90;;;;;;5034390;28;20004;-85
2023/05/31 09:33:44;;;;;;;;;;;17.60;99.90;;;;;;5029924;28;19940;-84
2023/05/31 09:36:11;;;;;;;;;;;17.60;99.90;;;;;;5034529;28;20325;-84
2023/05/31 09:38:37;;;;;;;;;;;17.60;99.90;;;;;;5033572;28;20043;-82
2023/05/31 09:41:16;;;;;;;;;;;17.60;99.90;;;;;;5059278;28;19925;-84
2023/05/31 09:43:46;;;;;;;;;;;17.70;99.90;;;;;;5016293;28;19925;-87
2023/05/31 09:46:13;;;;;;;;;;;17.90;99.90;;;;;;5033555;28;19931;-86
2023/05/31 09:48:38;;;;;;;;;;;17.90;99.90;;;;;;5025866;28;19929;-87
2023/05/31 09:51:08;;;;;;;;;;;18.00;99.90;;;;;;5012050;28;19932;-87
2023/05/31 09:53:41;;;;;;;;;;;18.00;99.90;;;;;;5008874;28;20367;-84
2023/05/31 09:56:11;;;;;;;;;;;18.10;99.90;;;;;;5026872;28;20280;-85
2023/05/31 09:58:37;;;;;;;;;;;18.10;99.90;;;;;;5031946;28;19939;-85
2023/05/31 10:01:03;;;;;;;;;;;17.90;99.90;;;;;;5034111;28;19987;-84
2023/05/31 10:03:29;;;;;;;;;;;17.80;99.90;;;;;;5017512;28;19947;-84
2023/05/31 10:05:55;;;;;;;;;;;17.90;99.90;;;;;;5021427;28;19925;-85
2023/05/31 10:08:23;;;;;;;;;;;17.80;99.90;;;;;;5034970;28;20416;-84
2023/05/31 10:10:49;;;;;;;;;;;17.80;99.90;;;;;;5035960;28;19964;-85
2023/05/31 10:13:16;;;;;;;;;;;17.80;99.90;;;;;;5036978;28;19983;-84
2023/05/31 10:15:43;;;;;;;;;;;17.80;99.90;;;;;;5012786;28;20027;-85
2023/05/31 10:18:16;;;;;;;;;;;17.80;99.90;;;;;;5017390;28;20259;-84
2023/05/31 10:20:52;;;;;;;;;;;17.80;99.90;;;;;;5026289;28;20387;-86
2023/05/31 10:23:22;;;;;;;;;;;17.80;99.90;;;;;;5012183;28;19932;-87
2023/05/31 10:25:47;;;;;;;;;;;17.80;99.90;;;;;;5031929;28;19932;-90
2023/05/31 10:28:15;;;;;;;;;;;17.80;99.90;;;;;;5035771;28;19929;-88
2023/05/31 10:30:41;;;;;;;;;;;17.80;99.90;;;;;;5010774;28;20028;-89
2023/05/31 10:33:07;;;;;;;;;;;17.70;99.90;;;;;;5041054;28;20042;-86
2023/05/31 10:35:36;;;;;;;;;;;16.60;99.90;;;;;;5026991;28;20463;-88
2023/05/31 10:38:02;;;;;;;;;;;17.80;99.90;;;;;;5007611;28;19925;-86
2023/05/31 10:40:33;;;;;;;;;;;17.90;99.90;;;;;;5037284;28;20525;-86
2023/05/31 10:42:59;;;;;;;;;;;18.00;99.90;;;;;;5031788;28;19925;-86
2023/05/31 10:45:25;;;;;;;;;;;17.90;99.90;;;;;;5018323;28;19925;-86
2023/05/31 10:48:02;;;;;;;;;;;17.80;99.90;;;;;;5000756;28;19929;-87
2023/05/31 10:50:28;;;;;;;;;;;17.90;99.90;;;;;;5009112;28;19925;-85
2023/05/31 10:53:12;;;;;;;;;;;18.00;99.90;;;;;;5036794;28;20270;-86
2023/05/31 10:55:42;;;;;;;;;;;18.00;99.90;;;;;;5036932;28;19925;-84
2023/05/31 10:58:23;;;;;;;;;;;18.20;99.90;;;;;;5020219;28;20030;-84
2023/05/31 11:00:51;;;;;;;;;;;18.20;99.90;;;;;;5007000;28;19932;-85
2023/05/31 11:03:20;;;;;;;;;;;18.20;99.90;;;;;;5012141;28;19932;-87
2023/05/31 11:05:54;;;;;;;;;;;18.00;99.90;;;;;;5030390;28;19929;-85
2023/05/31 11:08:20;;;;;;;;;;;18.20;99.90;;;;;;5013752;28;20386;-87
2023/05/31 11:10:45;;;;;;;;;;;18.10;99.90;;;;;;5036534;28;19975;-86
2023/05/31 11:13:11;;;;;;;;;;;18.20;99.90;;;;;;5020538;28;19924;-85
2023/05/31 11:15:44;;;;;;;;;;;18.30;99.90;;;;;;5036918;28;20007;-87
2023/05/31 11:18:14;;;;;;;;;;;18.50;99.90;;;;;;5036217;28;19931;-86
2023/05/31 11:20:42;;;;;;;;;;;18.60;99.90;;;;;;5016737;28;20437;-85
2023/05/31 11:23:28;;;;;;;;;;;18.60;99.90;;;;;;5039226;28;20015;-86
2023/05/31 11:26:13;;;;;;;;;;;18.50;99.90;;;;;;5036959;28;19959;-84
2023/05/31 11:28:51;;;;;;;;;;;18.60;99.90;;;;;;5022926;28;19925;-85
2023/05/31 11:31:18;;;;;;;;;;;18.60;99.90;;;;;;5037993;28;19932;-85
2023/05/31 11:33:44;;;;;;;;;;;18.70;99.90;;;;;;5014158;28;20466;-86
2023/05/31 11:36:10;;;;;;;;;;;18.70;99.90;;;;;;5017076;28;19929;-87
2023/05/31 11:38:35;;;;;;;;;;;18.90;99.90;;;;;;5035743;28;19935;-86
2023/05/31 11:41:05;;;;;;;;;;;18.90;99.90;;;;;;5013853;28;19925;-86
2023/05/31 11:43:31;;;;;;;;;;;19.00;99.90;;;;;;5030033;28;19976;-86
2023/05/31 11:45:57;;;;;;;;;;;19.10;99.90;;;;;;5018649;28;19979;-88
2023/05/31 11:48:29;;;;;;;;;;;19.10;99.90;;;;;;5022357;28;19925;-87
2023/05/31 11:50:55;;;;;;;;;;;19.10;99.90;;;;;;5033785;28;19925;-86
2023/05/31 11:53:21;;;;;;;;;;;19.10;99.90;;;;;;5026104;28;20015;-87
2023/05/31 11:55:49;;;;;;;;;;;19.00;99.90;;;;;;5028625;28;20004;-86
2023/05/31 11:58:18;;;;;;;;;;;19.10;99.90;;;;;;5016346;28;20555;-86
2023/05/31 12:00:45;;;;;;;;;;;19.10;99.90;;;;;;5021440;28;19925;-88
2023/05/31 12:03:13;;;;;;;;;;;19.20;99.90;;;;;;5027357;28;19976;-86
2023/05/31 12:05:39;;;;;;;;;;;19.30;99.90;;;;;;5030395;28;19924;-85
2023/05/31 12:08:09;;;;;;;;;;;19.30;99.90;;;;;;5024032;28;19952;-86
2023/05/31 12:10:35;;;;;;;;;;;19.30;99.90;;;;;;5025861;28;19932;-86
2023/05/31 12:13:01;;;;;;;;;;;19.20;99.90;;;;;;5038874;28;20235;-88
2023/05/31 12:15:32;;;;;;;;;;;19.20;99.90;;;;;;5012597;28;19936;-88
2023/05/31 12:18:00;;;;;;;;;;;19.30;99.90;;;;;;5012834;28;19971;-87
2023/05/31 12:20:30;;;;;;;;;;;19.20;99.90;;;;;;5030464;28;19929;-88
2023/05/31 12:23:11;;;;;;;;;;;19.20;99.90;;;;;;5014908;28;19925;-86
2023/05/31 12:25:42;;;;;;;;;;;19.30;99.90;;;;;;5026499;28;19935;-87
2023/05/31 12:28:09;;;;;;;;;;;19.30;99.90;;;;;;5019073;28;19933;-86
2023/05/31 12:30:44;;;;;;;;;;;19.30;99.90;;;;;;5016912;28;19968;-85
2023/05/31 12:33:11;;;;;;;;;;;19.40;99.90;;;;;;5016713;28;19932;-86
2023/05/31 12:35:43;;;;;;;;;;;19.50;99.90;;;;;;5033337;28;20025;-85
2023/05/31 12:38:08;;;;;;;;;;;19.50;99.90;;;;;;5034809;28;19928;-85
2023/05/31 12:40:38;;;;;;;;;;;19.60;99.90;;;;;;5040128;28;19925;-87
2023/05/31 12:43:04;;;;;;;;;;;19.50;99.90;;;;;;5030772;28;19978;-86
2023/05/31 12:45:30;;;;;;;;;;;19.50;99.90;;;;;;5034033;28;20020;-85
2023/05/31 12:47:56;;;;;;;;;;;19.60;99.90;;;;;;5030444;28;20020;-85
2023/05/31 12:50:22;;;;;;;;;;;19.70;99.90;;;;;;5024124;28;19937;-85
2023/05/31 12:52:54;;;;;;;;;;;19.80;99.90;;;;;;5015964;28;19990;-88
2023/05/31 12:55:20;;;;;;;;;;;19.80;99.90;;;;;;5023571;28;19979;-85
2023/05/31 12:57:48;;;;;;;;;;;19.70;99.90;;;;;;5029055;28;20168;-87
2023/05/31 13:00:14;;;;;;;;;;;21.30;99.90;;;;;;5017340;28;20024;-87
2023/05/31 13:02:40;;;;;;;;;;;19.60;99.90;;;;;;5034614;28;20361;-86
2023/05/31 13:05:06;;;;;;;;;;;19.60;99.90;;;;;;5031100;28;19994;-86
2023/05/31 13:07:32;;;;;;;;;;;19.80;99.90;;;;;;5017753;28;20028;-86
2023/05/31 13:09:58;;;;;;;;;;;19.70;99.90;;;;;;5028585;28;19972;-84
2023/05/31 13:12:23;;;;;;;;;;;19.60;99.90;;;;;;5017401;28;19928;-84
2023/05/31 13:14:51;;;;;;;;;;;19.60;99.90;;;;;;4995452;28;19931;-84
2023/05/31 13:17:17;;;;;;;;;;;19.60;99.90;;;;;;5026463;28;19976;-83
2023/05/31 13:19:43;;;;;;;;;;;19.60;99.90;;;;;;5031804;28;20406;-86
2023/05/31 13:22:11;;;;;;;;;;;19.50;99.90;;;;;;5036369;28;19964;-87
2023/05/31 13:24:40;;;;;;;;;;;19.50;99.90;;;;;;5034257;28;20373;-86
2023/05/31 13:27:05;;;;;;;;;;;19.60;99.90;;;;;;5033886;28;19925;-85
2023/05/31 13:29:31;;;;;;;;;;;19.60;99.90;;;;;;5014040;28;19932;-86
2023/05/31 13:31:57;;;;;;;;;;;19.60;99.90;;;;;;5032149;28;19925;-84
2023/05/31 13:34:23;;;;;;;;;;;19.50;99.90;;;;;;5016721;28;20070;-85
2023/05/31 13:36:49;;;;;;;;;;;19.60;99.90;;;;;;5015472;28;20020;-86
2023/05/31 13:39:17;;;;;;;;;;;19.40;99.90;;;;;;5031928;28;20011;-87
2023/05/31 13:41:43;;;;;;;;;;;19.40;99.90;;;;;;5012735;28;19928;-86
2023/05/31 13:44:09;;;;;;;;;;;19.60;99.90;;;;;;5016864;28;20263;-87
2023/05/31 13:46:35;;;;;;;;;;;19.50;99.90;;;;;;5023645;28;19925;-86
2023/05/31 13:49:15;;;;;;;;;;;19.50;99.90;;;;;;5037255;28;20443;-87
2023/05/31 13:51:41;;;;;;;;;;;19.40;99.90;;;;;;5027977;28;19929;-86
2023/05/31 13:54:07;;;;;;;;;;;19.60;99.90;;;;;;5015753;28;19929;-86
2023/05/31 13:56:32;;;;;;;;;;;20.20;99.90;;;;;;5011219;28;19931;-86
2023/05/31 13:58:58;;;;;;;;;;;19.60;99.90;;;;;;5020310;28;19929;-84
2023/05/31 14:01:28;;;;;;;;;;;19.90;99.90;;;;;;5019071;28;20432;-85
2023/05/31 14:06:40;;;;;;;;;;;19.80;99.90;;;;;;5037161;28;19924;-84
2023/05/31 14:09:05;;;;;;;;;;;19.80;99.90;;;;;;5020587;28;19931;-85
2023/05/31 14:11:36;;;;;;;;;;;19.60;99.90;;;;;;5026897;28;19968;-87
2023/05/31 14:14:04;;;;;;;;;;;19.60;99.90;;;;;;5020513;28;19925;-86
2023/05/31 14:16:30;;;;;;;;;;;19.80;99.90;;;;;;5037219;28;19925;-85
2023/05/31 14:19:00;;;;;;;;;;;19.50;99.90;;;;;;5020606;28;19925;-84
2023/05/31 14:21:26;;;;;;;;;;;19.30;99.90;;;;;;5037486;28;19928;-85
2023/05/31 14:23:52;;;;;;;;;;;19.20;99.90;;;;;;5032524;28;20390;-87